Time;durP1;ratioP1;P1;durP2;ratioP2;P2;SDS_P1;SDS_P2;PMS_P1;PMS_P2;Temp;Humidity;BMP_temperature;BMP_pressure;BME280_temperature;BME280_humidity;BME280_pressure;Samples;Min_cycle;Max_cycle;Signal;HPM_P1;HPM_P2
2022/03/19 00:01:56;;;;;;;10.77;2.08;;;20.40;99.90;;;;;;4994959;28;20242;-83
2022/03/19 00:04:28;;;;;;;15.23;2.47;;;20.50;99.90;;;;;;4994903;28;20188;-80
2022/03/19 00:06:59;;;;;;;16.50;2.33;;;20.60;99.90;;;;;;4995098;28;20648;-84
2022/03/19 00:09:34;;;;;;;15.10;2.70;;;20.60;99.90;;;;;;4994667;28;20238;-80
2022/03/19 00:12:05;;;;;;;14.23;2.47;;;20.60;99.90;;;;;;4994446;28;20222;-80
2022/03/19 00:14:36;;;;;;;15.98;2.50;;;20.60;99.90;;;;;;4994816;28;20187;-83
2022/03/19 00:17:07;;;;;;;14.25;2.50;;;20.50;99.90;;;;;;4994875;28;20206;-85
2022/03/19 00:19:39;;;;;;;13.98;2.88;;;20.50;99.90;;;;;;4995068;28;20565;-79
2022/03/19 00:22:10;;;;;;;14.60;2.42;;;20.40;99.90;;;;;;4994265;28;20283;-79
2022/03/19 00:24:41;;;;;;;13.82;2.78;;;20.30;99.90;;;;;;4995117;28;20196;-85
2022/03/19 00:27:11;;;;;;;16.65;2.47;;;20.20;99.90;;;;;;4994454;28;20246;-81
2022/03/19 00:29:42;;;;;;;16.20;3.17;;;20.20;99.90;;;;;;4994449;28;20184;-88
2022/03/19 00:32:13;;;;;;;19.00;3.22;;;20.20;99.90;;;;;;4994251;28;20297;-86
2022/03/19 00:34:45;;;;;;;16.98;2.63;;;20.20;99.90;;;;;;4993847;28;20200;-79
2022/03/19 00:37:16;;;;;;;17.83;2.65;;;20.30;99.90;;;;;;4991494;28;20195;-85
2022/03/19 00:39:47;;;;;;;11.85;2.60;;;20.40;99.90;;;;;;4994584;28;20191;-86
2022/03/19 00:42:17;;;;;;;21.63;2.85;;;20.40;99.90;;;;;;4991415;28;20230;-86
2022/03/19 00:44:48;;;;;;;13.00;2.50;;;20.40;99.90;;;;;;4994294;28;20330;-87
2022/03/19 00:47:18;;;;;;;11.93;2.70;;;20.30;99.90;;;;;;4994153;28;20234;-87
2022/03/19 00:49:51;;;;;;;20.75;3.10;;;20.30;99.90;;;;;;4990323;28;20210;-82
2022/03/19 00:52:22;;;;;;;12.95;2.45;;;20.30;99.90;;;;;;4992987;28;20214;-80
2022/03/19 00:54:52;;;;;;;20.33;2.97;;;20.20;99.90;;;;;;4991726;28;20319;-87
2022/03/19 00:57:23;;;;;;;14.27;2.40;;;20.10;99.90;;;;;;4993286;28;20215;-87
2022/03/19 00:59:54;;;;;;;11.65;2.33;;;20.10;99.90;;;;;;4990968;28;20192;-85
2022/03/19 01:02:25;;;;;;;15.90;2.33;;;20.00;99.90;;;;;;4991148;28;20239;-84
2022/03/19 01:04:57;;;;;;;15.60;2.50;;;19.90;99.90;;;;;;4989096;28;20196;-84
2022/03/19 01:07:28;;;;;;;13.52;2.38;;;20.00;99.90;;;;;;4993459;28;20192;-82
2022/03/19 01:09:59;;;;;;;13.02;2.67;;;19.90;99.90;;;;;;4994526;28;20250;-79
2022/03/19 01:12:29;;;;;;;13.93;2.30;;;20.00;99.90;;;;;;4993839;28;20192;-82
2022/03/19 01:15:02;;;;;;;12.63;2.40;;;20.10;99.90;;;;;;4986221;28;20286;-80
2022/03/19 01:17:33;;;;;;;14.57;2.70;;;20.00;99.90;;;;;;4989080;28;20204;-80
2022/03/19 01:20:06;;;;;;;14.98;2.47;;;20.00;99.90;;;;;;4990883;28;20235;-80
2022/03/19 01:22:37;;;;;;;21.38;2.85;;;20.10;99.90;;;;;;4994766;28;20184;-80
2022/03/19 01:25:08;;;;;;;15.27;2.33;;;20.20;99.90;;;;;;4989574;28;20189;-80
2022/03/19 01:27:40;;;;;;;18.30;2.50;;;20.10;99.90;;;;;;4993596;28;20242;-79
2022/03/19 01:30:13;;;;;;;16.00;2.40;;;20.10;99.90;;;;;;4992447;28;20250;-78
2022/03/19 01:32:44;;;;;;;15.27;2.42;;;20.20;99.90;;;;;;4994059;28;20188;-81
2022/03/19 01:35:18;;;;;;;14.50;2.25;;;20.30;99.90;;;;;;4993895;28;20200;-83
2022/03/19 01:37:49;;;;;;;23.15;2.75;;;20.40;99.90;;;;;;4994052;28;20187;-79
2022/03/19 01:40:20;;;;;;;19.23;2.45;;;20.60;99.90;;;;;;4992220;28;20606;-79
2022/03/19 01:42:52;;;;;;;15.27;2.80;;;20.70;99.90;;;;;;4993519;28;20188;-78
2022/03/19 01:45:25;;;;;;;13.52;2.97;;;20.80;99.90;;;;;;4991405;28;20227;-81
2022/03/19 01:47:56;;;;;;;15.88;2.47;;;20.90;99.90;;;;;;4993607;28;20192;-79
2022/03/19 01:50:29;;;;;;;14.20;2.60;;;20.90;99.90;;;;;;4993734;28;20681;-79
2022/03/19 01:53:00;;;;;;;16.25;2.60;;;20.90;99.90;;;;;;4993291;28;20188;-83
2022/03/19 01:55:31;;;;;;;16.75;2.60;;;20.80;99.90;;;;;;4992963;28;20709;-79
2022/03/19 01:58:04;;;;;;;12.60;2.55;;;20.70;99.90;;;;;;4991963;28;20200;-85
2022/03/19 02:00:35;;;;;;;14.63;2.42;;;20.60;99.90;;;;;;4988027;28;20682;-83
2022/03/19 02:03:08;;;;;;;15.60;2.33;;;20.50;99.90;;;;;;4992414;28;20195;-81
2022/03/19 02:05:40;;;;;;;17.08;2.78;;;20.50;99.90;;;;;;4994537;28;20199;-82
2022/03/19 02:08:11;;;;;;;14.88;2.40;;;20.50;99.90;;;;;;4993508;28;20254;-80
2022/03/19 02:10:41;;;;;;;16.70;2.28;;;20.50;99.90;;;;;;4991848;28;20570;-81
2022/03/19 02:13:12;;;;;;;16.98;2.40;;;20.60;99.90;;;;;;4993454;28;20597;-79
2022/03/19 02:15:43;;;;;;;20.67;2.25;;;20.70;99.90;;;;;;4992997;28;20258;-79
2022/03/19 02:18:14;;;;;;;17.90;2.80;;;20.80;99.90;;;;;;4993839;28;20563;-81
2022/03/19 02:20:46;;;;;;;18.65;3.20;;;20.70;99.90;;;;;;4992434;28;20258;-82
2022/03/19 02:26:14;;;;;;;17.45;2.65;;;20.80;99.90;;;;;;4985098;28;20215;-81
2022/03/19 02:28:44;;;;;;;12.88;2.33;;;20.70;99.90;;;;;;4993742;28;20202;-87
2022/03/19 02:31:15;;;;;;;17.77;2.67;;;20.70;99.90;;;;;;4993238;28;20675;-86
2022/03/19 02:33:46;;;;;;;14.98;2.50;;;20.70;99.90;;;;;;4993309;28;20192;-83
2022/03/19 02:36:20;;;;;;;15.75;2.53;;;20.70;99.90;;;;;;4993572;28;20199;-86
2022/03/19 02:38:53;;;;;;;16.85;2.58;;;20.70;99.90;;;;;;4993072;28;20238;-85
2022/03/19 02:41:24;;;;;;;18.15;2.72;;;20.70;99.90;;;;;;4992698;28;20642;-86
2022/03/19 02:43:54;;;;;;;14.35;2.67;;;20.70;99.90;;;;;;4993310;28;20231;-86
2022/03/19 02:46:39;;;;;;;15.27;2.40;;;20.70;99.90;;;;;;4993259;28;20184;-87
2022/03/19 02:49:10;;;;;;;17.75;2.30;;;20.70;99.90;;;;;;4993400;28;20573;-86
2022/03/19 02:51:43;;;;;;;18.60;2.60;;;20.70;99.90;;;;;;4993380;28;20281;-86
2022/03/19 02:54:19;;;;;;;20.88;2.90;;;20.70;99.90;;;;;;4992931;28;20196;-85
2022/03/19 02:56:51;;;;;;;17.73;2.97;;;20.80;99.90;;;;;;4972928;28;20594;-86
2022/03/19 02:59:23;;;;;;;19.58;3.20;;;20.80;99.90;;;;;;4976784;28;20192;-84
2022/03/19 03:01:55;;;;;;;19.48;3.47;;;20.90;99.90;;;;;;4996353;28;20246;-88
2022/03/19 03:04:26;;;;;;;14.63;2.10;;;21.00;99.90;;;;;;4995955;28;20196;-84
2022/03/19 03:06:57;;;;;;;12.93;2.17;;;21.00;99.90;;;;;;4996745;28;20604;-84
2022/03/19 03:09:33;;;;;;;11.57;2.00;;;21.00;99.90;;;;;;4996785;28;20192;-85
2022/03/19 03:12:07;;;;;;;19.80;2.28;;;21.00;99.90;;;;;;4996652;28;20690;-87
2022/03/19 03:14:38;;;;;;;12.70;2.05;;;21.10;99.90;;;;;;4996700;28;20195;-84
2022/03/19 03:17:09;;;;;;;17.67;2.40;;;21.10;99.90;;;;;;4996691;28;20196;-87
2022/03/19 03:19:40;;;;;;;17.27;2.22;;;21.10;99.90;;;;;;4996284;28;20644;-89
2022/03/19 03:22:13;;;;;;;15.23;2.22;;;21.20;99.90;;;;;;4993370;28;20188;-83
2022/03/19 03:24:45;;;;;;;14.18;2.10;;;21.30;99.90;;;;;;4995488;28;20199;-88
2022/03/19 03:27:16;;;;;;;17.80;2.50;;;21.50;99.90;;;;;;4995870;28;20196;-84
2022/03/19 03:29:46;;;;;;;9.98;2.13;;;21.60;99.90;;;;;;4990878;28;20416;-85
2022/03/19 03:32:17;;;;;;;11.95;2.05;;;21.60;99.90;;;;;;4995836;28;20224;-77
2022/03/19 03:34:48;;;;;;;18.95;2.35;;;21.70;99.90;;;;;;4995718;28;20200;-79
2022/03/19 03:37:19;;;;;;;14.55;2.03;;;21.60;99.90;;;;;;4994341;28;20192;-80
2022/03/19 03:39:52;;;;;;;16.42;2.35;;;21.60;99.90;;;;;;4992296;28;20275;-85
2022/03/19 03:42:22;;;;;;;14.10;2.20;;;21.50;99.90;;;;;;4991448;28;20242;-79
2022/03/19 03:44:57;;;;;;;11.95;1.98;;;21.40;99.90;;;;;;4995100;28;20238;-80
2022/03/19 03:47:29;;;;;;;14.20;2.20;;;21.40;99.90;;;;;;4996235;28;20192;-80
2022/03/19 03:50:00;;;;;;;14.27;2.60;;;21.50;99.90;;;;;;4994119;28;20705;-78
2022/03/19 03:52:31;;;;;;;13.90;2.22;;;21.50;99.90;;;;;;4994809;28;20211;-79
2022/03/19 03:55:06;;;;;;;17.52;2.70;;;21.50;99.90;;;;;;4995584;28;20188;-79
2022/03/19 03:57:37;;;;;;;16.50;2.78;;;21.60;99.90;;;;;;5007485;28;20191;-82
2022/03/19 04:00:09;;;;;;;12.15;2.38;;;21.60;99.90;;;;;;4997845;28;20195;-82
2022/03/19 04:02:40;;;;;;;12.32;2.28;;;21.60;99.90;;;;;;4994872;28;20231;-81
2022/03/19 04:05:12;;;;;;;13.68;1.92;;;21.50;99.90;;;;;;4994732;28;20188;-81
2022/03/19 04:07:43;;;;;;;13.18;2.20;;;21.50;99.90;;;;;;4994859;28;20219;-81
2022/03/19 04:10:16;;;;;;;15.00;2.58;;;21.50;99.90;;;;;;4993899;28;20202;-79
2022/03/19 04:12:47;;;;;;;17.02;2.50;;;21.50;99.90;;;;;;4993775;28;20233;-80
2022/03/19 04:15:18;;;;;;;14.73;2.20;;;21.50;99.90;;;;;;4992367;28;20192;-80
2022/03/19 04:17:48;;;;;;;18.38;2.80;;;21.50;99.90;;;;;;4995407;28;20655;-81
2022/03/19 04:20:21;;;;;;;17.42;2.78;;;21.60;99.90;;;;;;4998667;28;20190;-86
2022/03/19 04:22:52;;;;;;;15.70;2.33;;;21.50;99.90;;;;;;4993833;28;20530;-79
2022/03/19 04:25:26;;;;;;;16.75;2.60;;;21.50;99.90;;;;;;4996175;28;20246;-80
2022/03/19 04:27:58;;;;;;;13.02;2.20;;;21.50;99.90;;;;;;5000669;28;20643;-84
2022/03/19 04:30:29;;;;;;;18.10;2.53;;;21.50;99.90;;;;;;4993878;28;20190;-86
2022/03/19 04:33:04;;;;;;;11.98;2.70;;;21.50;99.90;;;;;;4995036;28;20270;-86
2022/03/19 04:38:23;;;;;;;17.50;2.40;;;21.40;99.90;;;;;;4991952;28;20190;-84
2022/03/19 04:40:56;;;;;;;15.88;2.10;;;21.40;99.90;;;;;;4994085;28;20219;-85
2022/03/19 04:43:27;;;;;;;14.85;2.20;;;21.30;99.90;;;;;;4994384;28;20314;-84
2022/03/19 04:45:58;;;;;;;14.38;2.08;;;21.40;99.90;;;;;;4994158;28;20200;-85
2022/03/19 04:48:30;;;;;;;11.05;1.90;;;21.30;99.90;;;;;;4993719;28;20192;-84
2022/03/19 04:51:00;;;;;;;12.70;1.92;;;21.30;99.90;;;;;;4994055;28;20187;-85
2022/03/19 04:53:31;;;;;;;12.45;1.67;;;21.30;99.90;;;;;;4994483;28;20223;-85
2022/03/19 04:56:04;;;;;;;11.85;2.10;;;21.30;99.90;;;;;;4993902;28;20199;-84
2022/03/19 04:58:36;;;;;;;10.35;1.85;;;21.30;99.90;;;;;;4994051;28;20528;-84
2022/03/19 05:01:06;;;;;;;11.65;2.10;;;21.40;99.90;;;;;;4989921;28;20192;-86
2022/03/19 05:03:37;;;;;;;11.55;2.20;;;21.40;99.90;;;;;;4993592;28;20651;-84
2022/03/19 05:06:07;;;;;;;11.20;1.90;;;21.40;99.90;;;;;;4993690;28;20195;-81
2022/03/19 05:08:38;;;;;;;13.13;2.10;;;21.50;99.90;;;;;;4992964;28;20218;-87
2022/03/19 05:11:17;;;;;;;12.98;2.38;;;21.40;99.90;;;;;;4994353;28;20242;-84
2022/03/19 05:13:49;;;;;;;10.93;2.17;;;21.40;99.90;;;;;;4993168;28;20192;-85
2022/03/19 05:16:20;;;;;;;12.73;2.20;;;21.40;99.90;;;;;;4993258;28;20198;-86
2022/03/19 05:18:51;;;;;;;8.20;1.70;;;21.30;99.90;;;;;;4991248;28;20278;-87
2022/03/19 05:21:21;;;;;;;17.70;2.30;;;21.30;99.90;;;;;;4991235;28;20187;-83
2022/03/19 05:23:52;;;;;;;10.65;1.90;;;21.30;99.90;;;;;;4990396;28;20187;-83
2022/03/19 05:26:24;;;;;;;10.80;2.00;;;21.30;99.90;;;;;;4993785;28;20192;-86
2022/03/19 05:28:55;;;;;;;11.82;2.33;;;21.20;99.90;;;;;;4990704;28;20199;-85
2022/03/19 05:31:26;;;;;;;11.65;2.10;;;21.30;99.90;;;;;;4993543;28;20188;-84
2022/03/19 05:36:44;;;;;;;15.00;2.13;;;21.20;99.90;;;;;;4993761;28;20191;-83
2022/03/19 05:39:14;;;;;;;8.88;1.90;;;21.20;99.90;;;;;;4992936;28;20191;-86
2022/03/19 05:41:49;;;;;;;10.38;1.88;;;21.20;99.90;;;;;;4992882;28;20230;-84
2022/03/19 05:44:20;;;;;;;13.07;2.25;;;21.10;99.90;;;;;;4989897;28;20238;-87
2022/03/19 05:46:52;;;;;;;13.25;1.95;;;21.10;99.90;;;;;;4993020;28;20200;-87
2022/03/19 05:49:22;;;;;;;12.13;2.10;;;21.10;99.90;;;;;;4993214;28;20188;-86
2022/03/19 05:51:53;;;;;;;11.70;1.80;;;21.10;99.90;;;;;;4990247;28;20216;-86
2022/03/19 05:54:24;;;;;;;13.82;1.88;;;21.00;99.90;;;;;;4993262;28;20188;-83
2022/03/19 05:56:57;;;;;;;13.68;2.35;;;21.00;99.90;;;;;;4991256;28;20210;-85
2022/03/19 05:59:30;;;;;;;11.38;2.00;;;21.10;99.90;;;;;;4992032;28;20221;-84
2022/03/19 06:02:01;;;;;;;14.02;2.28;;;21.10;99.90;;;;;;4993017;28;20275;-79
2022/03/19 06:04:33;;;;;;;14.75;2.25;;;21.10;99.90;;;;;;4992968;28;20235;-78
2022/03/19 06:07:03;;;;;;;15.07;2.60;;;21.30;99.90;;;;;;4992735;28;20192;-80
2022/03/19 06:09:34;;;;;;;15.02;2.00;;;21.30;99.90;;;;;;4992526;28;20196;-81
2022/03/19 06:12:07;;;;;;;15.45;2.17;;;21.40;99.90;;;;;;4992450;28;20207;-80
2022/03/19 06:14:38;;;;;;;13.90;2.10;;;21.30;99.90;;;;;;4992413;28;20188;-81
2022/03/19 06:17:08;;;;;;;13.90;2.60;;;21.30;99.90;;;;;;4992473;28;20667;-78
2022/03/19 06:19:39;;;;;;;11.23;1.95;;;21.30;99.90;;;;;;4991647;28;20202;-79
2022/03/19 06:22:10;;;;;;;17.10;2.38;;;21.50;99.90;;;;;;4992433;28;20683;-80
2022/03/19 06:24:40;;;;;;;10.65;1.88;;;21.50;99.90;;;;;;4996079;28;20192;-79
2022/03/19 06:27:13;;;;;;;12.52;2.30;;;21.40;99.90;;;;;;4998111;28;20200;-84
2022/03/19 06:29:43;;;;;;;10.18;2.20;;;21.30;99.90;;;;;;4991313;28;20192;-83
2022/03/19 06:32:14;;;;;;;14.80;2.65;;;21.30;99.90;;;;;;4994193;28;20602;-83
2022/03/19 06:34:45;;;;;;;17.13;2.40;;;21.20;99.90;;;;;;4995867;28;20266;-80
2022/03/19 06:37:20;;;;;;;17.23;2.30;;;21.10;99.90;;;;;;4998542;28;20246;-81
2022/03/19 06:39:54;;;;;;;15.77;2.60;;;21.10;99.90;;;;;;4993497;28;20205;-81
2022/03/19 06:42:27;;;;;;;12.32;2.05;;;21.10;99.90;;;;;;4995473;28;20203;-81
2022/03/19 06:44:58;;;;;;;12.05;2.28;;;21.10;99.90;;;;;;4996036;28;20239;-85
2022/03/19 06:47:28;;;;;;;12.48;1.80;;;21.10;99.90;;;;;;4995065;28;20440;-83
2022/03/19 06:50:00;;;;;;;15.25;2.05;;;21.10;99.90;;;;;;4996818;28;20196;-84
2022/03/19 06:52:31;;;;;;;15.50;2.08;;;21.00;99.90;;;;;;4996200;28;20246;-82
2022/03/19 06:55:02;;;;;;;14.52;2.47;;;20.80;99.90;;;;;;4996478;28;20666;-84
2022/03/19 06:57:35;;;;;;;16.42;2.33;;;20.80;99.90;;;;;;4995177;28;20207;-81
2022/03/19 07:00:05;;;;;;;12.13;1.95;;;20.80;99.90;;;;;;4996582;28;20195;-81
2022/03/19 07:02:47;;;;;;;15.82;2.08;;;20.90;99.90;;;;;;4996344;28;20183;-85
2022/03/19 07:05:24;;;;;;;14.02;2.10;;;20.90;99.90;;;;;;4995554;28;20238;-78
2022/03/19 07:07:55;;;;;;;13.50;2.28;;;21.00;99.90;;;;;;4995960;28;20210;-84
2022/03/19 07:10:26;;;;;;;14.75;2.10;;;21.00;99.90;;;;;;4982800;28;20251;-84
2022/03/19 07:12:59;;;;;;;12.88;2.30;;;21.00;99.90;;;;;;4999498;28;20215;-86
2022/03/19 07:15:33;;;;;;;13.45;1.92;;;21.00;99.90;;;;;;4995582;28;20195;-82
2022/03/19 07:18:05;;;;;;;14.02;2.22;;;20.90;99.90;;;;;;4995889;28;20195;-84
2022/03/19 07:20:35;;;;;;;11.77;2.17;;;21.00;99.90;;;;;;4995298;28;20643;-81
2022/03/19 07:23:07;;;;;;;16.75;2.28;;;21.00;99.90;;;;;;4995749;28;20202;-84
2022/03/19 07:25:38;;;;;;;15.40;2.40;;;20.90;99.90;;;;;;4995540;28;20184;-85
2022/03/19 07:28:12;;;;;;;16.15;2.75;;;20.90;99.90;;;;;;4986272;28;20188;-85
2022/03/19 07:30:43;;;;;;;14.68;2.38;;;20.80;99.90;;;;;;4994689;28;20240;-85
2022/03/19 07:33:13;;;;;;;19.30;3.45;;;20.80;99.90;;;;;;4993427;28;20223;-84
2022/03/19 07:35:45;;;;;;;11.35;2.30;;;20.80;99.90;;;;;;4994081;28;20191;-86
2022/03/19 07:38:15;;;;;;;18.55;2.50;;;20.70;99.90;;;;;;4995184;28;20639;-78
2022/03/19 07:43:37;;;;;;;15.10;2.10;;;20.70;99.90;;;;;;5012632;22;20361;-84
2022/03/19 07:46:09;;;;;;;13.52;2.38;;;20.60;99.90;;;;;;5034197;28;20197;-83
2022/03/19 07:48:40;;;;;;;16.02;2.30;;;20.60;99.90;;;;;;5034901;28;20187;-82
2022/03/19 07:51:11;;;;;;;12.07;2.22;;;20.50;99.90;;;;;;5029980;28;20198;-83
2022/03/19 07:53:42;;;;;;;11.05;1.83;;;20.50;99.90;;;;;;5028564;28;20218;-82
2022/03/19 07:56:12;;;;;;;14.02;2.33;;;20.40;99.90;;;;;;5034224;28;20195;-83
2022/03/19 07:58:50;;;;;;;11.52;2.40;;;20.40;99.90;;;;;;5029110;28;20240;-82
2022/03/19 08:01:20;;;;;;;14.05;2.10;;;20.40;99.90;;;;;;5021474;28;20212;-84
2022/03/19 08:03:51;;;;;;;12.05;2.00;;;20.40;99.90;;;;;;5034209;28;20193;-83
2022/03/19 08:06:22;;;;;;;12.35;2.22;;;20.30;99.90;;;;;;5034738;28;20202;-84
2022/03/19 08:08:52;;;;;;;11.13;2.13;;;20.30;99.90;;;;;;5034471;28;20186;-84
2022/03/19 08:11:23;;;;;;;14.60;2.80;;;20.20;99.90;;;;;;5034021;28;20193;-83
2022/03/19 08:13:56;;;;;;;10.75;2.20;;;20.20;99.90;;;;;;5031125;28;20669;-81
2022/03/19 08:16:27;;;;;;;14.57;2.72;;;20.20;99.90;;;;;;5034136;28;20604;-83
2022/03/19 08:18:58;;;;;;;10.50;2.03;;;20.10;99.90;;;;;;5034910;28;20214;-83
2022/03/19 08:21:29;;;;;;;14.85;2.28;;;20.10;99.90;;;;;;5033349;28;20187;-83
2022/03/19 08:23:59;;;;;;;12.65;2.28;;;20.10;99.90;;;;;;5033166;28;20530;-84
2022/03/19 08:26:30;;;;;;;13.05;2.35;;;20.10;99.90;;;;;;5032491;28;20556;-84
2022/03/19 08:29:02;;;;;;;14.90;2.00;;;20.10;99.90;;;;;;5034462;28;20195;-84
2022/03/19 08:31:33;;;;;;;10.57;2.28;;;20.10;99.90;;;;;;5030710;28;20198;-82
2022/03/19 08:34:04;;;;;;;13.23;2.38;;;20.10;99.90;;;;;;5033003;28;20214;-83
2022/03/19 08:36:34;;;;;;;11.32;2.30;;;20.10;99.90;;;;;;5033049;28;20711;-83
2022/03/19 08:41:51;;;;;;;13.18;2.25;;;20.10;99.90;;;;;;5034235;28;20244;-82
2022/03/19 08:44:24;;;;;;;17.10;2.85;;;20.10;99.90;;;;;;5018963;28;20273;-82
2022/03/19 08:46:55;;;;;;;12.15;2.42;;;20.00;99.90;;;;;;5014423;28;20191;-83
2022/03/19 08:49:26;;;;;;;16.67;2.20;;;19.90;99.90;;;;;;5013884;28;20188;-83
2022/03/19 08:51:56;;;;;;;10.02;1.92;;;19.90;99.90;;;;;;5014230;28;20264;-82
2022/03/19 08:54:27;;;;;;;14.63;2.50;;;19.80;99.90;;;;;;5012376;28;20206;-83
2022/03/19 08:56:58;;;;;;;9.95;2.10;;;19.90;99.90;;;;;;5013086;28;20194;-84
2022/03/19 08:59:30;;;;;;;16.95;2.35;;;19.90;99.90;;;;;;5013849;28;20249;-83
2022/03/19 09:02:01;;;;;;;10.32;2.10;;;19.90;99.90;;;;;;5013452;28;20194;-83
2022/03/19 09:04:32;;;;;;;10.57;1.95;;;19.80;99.90;;;;;;5013444;28;20195;-82
2022/03/19 09:07:02;;;;;;;12.32;1.90;;;19.80;99.90;;;;;;5014053;28;20191;-83
2022/03/19 09:09:33;;;;;;;11.48;2.00;;;19.80;99.90;;;;;;5013234;28;20199;-83
2022/03/19 09:12:03;;;;;;;11.40;2.03;;;19.80;99.90;;;;;;4994847;28;20191;-83
2022/03/19 09:14:36;;;;;;;9.57;1.92;;;19.80;99.90;;;;;;4994961;28;20636;-83
2022/03/19 09:17:07;;;;;;;14.00;2.35;;;19.80;99.90;;;;;;5010417;28;20249;-83
2022/03/19 09:19:38;;;;;;;10.27;2.05;;;19.80;99.90;;;;;;5013260;28;20223;-83
2022/03/19 09:22:08;;;;;;;11.23;2.30;;;19.80;99.90;;;;;;5013285;28;20195;-83
2022/03/19 09:24:39;;;;;;;11.68;2.22;;;19.70;99.90;;;;;;5013757;28;20641;-83
2022/03/19 09:27:10;;;;;;;10.30;1.90;;;19.70;99.90;;;;;;5012988;28;20199;-82
2022/03/19 09:29:43;;;;;;;10.70;1.98;;;19.70;99.90;;;;;;5013753;28;20194;-83
2022/03/19 09:32:13;;;;;;;12.07;2.35;;;19.70;99.90;;;;;;5012119;28;20233;-81
2022/03/19 09:34:47;;;;;;;12.82;2.20;;;19.80;99.90;;;;;;5011682;28;20211;-82
2022/03/19 09:37:18;;;;;;;12.68;2.42;;;19.80;99.90;;;;;;5002913;28;20187;-81
2022/03/19 09:39:49;;;;;;;15.07;2.58;;;19.80;99.90;;;;;;5012570;28;20217;-82
2022/03/19 09:42:19;;;;;;;13.50;2.40;;;19.80;99.90;;;;;;5013408;28;20198;-84
2022/03/19 09:44:52;;;;;;;14.32;2.72;;;19.90;99.90;;;;;;5011715;28;20239;-83
2022/03/19 09:47:22;;;;;;;13.45;2.97;;;19.90;99.90;;;;;;5011804;28;20187;-83
2022/03/19 09:49:53;;;;;;;11.95;2.42;;;19.90;99.90;;;;;;5013340;28;20262;-84
2022/03/19 09:52:26;;;;;;;14.13;3.20;;;19.90;99.90;;;;;;5012761;28;20245;-83
2022/03/19 09:55:03;;;;;;;12.75;2.33;;;19.90;99.90;;;;;;5012624;28;20214;-82
2022/03/19 09:57:33;;;;;;;15.25;2.70;;;19.90;99.90;;;;;;5013502;28;20195;-83
2022/03/19 10:00:06;;;;;;;18.05;2.63;;;19.90;99.90;;;;;;5012658;28;20649;-82
2022/03/19 10:02:51;;;;;;;11.05;2.30;;;19.90;99.90;;;;;;5007127;28;20212;-83
2022/03/19 10:10:58;;;;;;;12.23;2.28;;;19.90;99.90;;;;;;5010915;28;20327;-82
2022/03/19 10:13:29;;;;;;;11.90;2.03;;;19.90;99.90;;;;;;5016796;28;20214;-83
2022/03/19 10:16:02;;;;;;;12.68;2.22;;;19.90;99.90;;;;;;5016491;28;20341;-83
2022/03/19 10:18:33;;;;;;;11.27;2.17;;;19.90;99.90;;;;;;5017272;28;20528;-83
2022/03/19 10:21:05;;;;;;;12.45;2.63;;;19.90;99.90;;;;;;5016548;28;20862;-83
2022/03/19 10:23:39;;;;;;;14.85;2.33;;;19.90;99.90;;;;;;5015528;28;20638;-83
2022/03/19 10:26:24;;;;;;;14.15;2.40;;;19.90;99.90;;;;;;5016755;28;20641;-83
2022/03/19 10:29:01;;;;;;;13.38;2.22;;;19.90;99.90;;;;;;5013467;28;20241;-83
2022/03/19 10:31:40;;;;;;;12.10;2.17;;;19.90;99.90;;;;;;5015543;28;20194;-84
2022/03/19 10:34:11;;;;;;;11.48;2.15;;;19.90;99.90;;;;;;5016302;28;20218;-84
2022/03/19 10:36:43;;;;;;;13.43;2.10;;;19.90;99.90;;;;;;5014614;28;20187;-83
2022/03/19 10:39:21;;;;;;;13.98;2.63;;;19.90;99.90;;;;;;5016701;28;20225;-84
2022/03/19 10:41:54;;;;;;;13.35;1.90;;;19.90;99.90;;;;;;5014959;28;20245;-84
2022/03/19 10:44:28;;;;;;;9.85;2.17;;;19.90;99.90;;;;;;5015319;28;20241;-83
2022/03/19 10:47:03;;;;;;;16.27;2.28;;;19.90;99.90;;;;;;5016493;28;20191;-83
2022/03/19 10:49:34;;;;;;;11.98;2.28;;;19.90;99.90;;;;;;5016574;28;20222;-83
2022/03/19 10:52:05;;;;;;;9.85;2.58;;;19.90;99.90;;;;;;5016337;28;20199;-83
2022/03/19 10:54:36;;;;;;;14.05;2.33;;;19.90;99.90;;;;;;5016235;28;20302;-84
2022/03/19 10:57:07;;;;;;;14.52;2.65;;;19.90;99.90;;;;;;5016730;28;20249;-84
2022/03/19 10:59:38;;;;;;;16.77;2.63;;;19.90;99.90;;;;;;5015832;28;20195;-83
2022/03/19 11:02:11;;;;;;;10.18;2.30;;;19.90;99.90;;;;;;5009379;28;20561;-83
2022/03/19 11:04:42;;;;;;;16.25;2.47;;;19.80;99.90;;;;;;5013806;28;20270;-84
2022/03/19 11:07:15;;;;;;;23.00;3.30;;;19.80;99.90;;;;;;5015750;28;20187;-84
2022/03/19 11:09:47;;;;;;;14.18;2.25;;;19.80;99.90;;;;;;5002128;28;20199;-83
2022/03/19 11:12:20;;;;;;;12.55;2.42;;;19.80;99.90;;;;;;5016131;28;20191;-82
2022/03/19 11:14:54;;;;;;;15.05;2.10;;;19.90;99.90;;;;;;5015870;28;20681;-82
2022/03/19 11:17:30;;;;;;;11.02;2.30;;;19.80;99.90;;;;;;5015638;28;20199;-82
2022/03/19 11:20:02;;;;;;;15.38;2.10;;;19.80;99.90;;;;;;5014889;28;20201;-83
2022/03/19 11:22:39;;;;;;;14.10;2.50;;;19.80;99.90;;;;;;5015707;28;20249;-83
2022/03/19 11:25:20;;;;;;;14.48;2.72;;;19.80;99.90;;;;;;5014376;28;20286;-83
2022/03/19 11:27:52;;;;;;;14.73;2.33;;;19.80;99.90;;;;;;5011389;28;20646;-83
2022/03/19 11:30:25;;;;;;;12.05;2.90;;;19.80;99.90;;;;;;5015357;28;20239;-84
2022/03/19 11:33:09;;;;;;;12.77;2.20;;;19.70;99.90;;;;;;5015108;28;20202;-84
2022/03/19 11:35:41;;;;;;;17.42;2.67;;;19.70;99.90;;;;;;5001510;28;20285;-83
2022/03/19 11:38:15;;;;;;;11.55;2.22;;;19.60;99.90;;;;;;5015706;28;20199;-84
2022/03/19 11:40:47;;;;;;;14.13;2.55;;;19.60;99.90;;;;;;5015983;28;20268;-83
2022/03/19 11:43:31;;;;;;;14.98;2.22;;;19.50;99.90;;;;;;5014922;28;20306;-84
2022/03/19 11:46:02;;;;;;;16.88;2.80;;;19.50;99.90;;;;;;5015965;28;20238;-84
2022/03/19 11:48:46;;;;;;;11.95;2.53;;;19.50;99.90;;;;;;5015586;28;20638;-84
2022/03/19 11:51:22;;;;;;;12.95;2.70;;;19.50;99.90;;;;;;5015446;28;20233;-83
2022/03/19 11:53:58;;;;;;;15.13;2.58;;;19.40;99.90;;;;;;5015693;28;20218;-83
2022/03/19 11:56:30;;;;;;;15.93;2.58;;;19.40;99.90;;;;;;5015270;28;20186;-84
2022/03/19 11:59:04;;;;;;;14.70;2.40;;;19.40;99.90;;;;;;5014844;28;20199;-83
2022/03/19 12:01:55;;;;;;;12.40;2.70;;;19.40;99.90;;;;;;5015101;28;20191;-84
2022/03/19 12:04:42;;;;;;;12.20;2.55;;;19.30;99.90;;;;;;5015263;28;20207;-83
2022/03/19 12:07:12;;;;;;;11.10;2.50;;;19.30;99.90;;;;;;5014880;28;20261;-83
2022/03/19 12:10:01;;;;;;;12.25;2.40;;;19.30;99.90;;;;;;5014731;28;20202;-83
2022/03/19 12:12:32;;;;;;;9.93;2.28;;;19.30;99.90;;;;;;5015266;28;20298;-83
2022/03/19 12:15:22;;;;;;;15.73;2.67;;;19.20;99.90;;;;;;5015338;28;20226;-83
2022/03/19 12:17:53;;;;;;;13.23;2.35;;;19.20;99.90;;;;;;5012357;28;20199;-82
2022/03/19 12:20:26;;;;;;;11.32;2.42;;;19.10;99.90;;;;;;5015267;28;20638;-83
2022/03/19 12:22:59;;;;;;;12.05;2.30;;;19.10;99.90;;;;;;5015018;28;20203;-83
2022/03/19 12:25:36;;;;;;;15.63;2.55;;;19.10;99.90;;;;;;5015183;28;20273;-83
2022/03/19 12:28:08;;;;;;;12.45;2.53;;;19.10;99.90;;;;;;5014980;28;20191;-83
2022/03/19 12:30:39;;;;;;;11.18;2.40;;;19.10;99.90;;;;;;5014273;28;20265;-83
2022/03/19 12:33:10;;;;;;;13.18;2.28;;;19.10;99.90;;;;;;5013307;28;20187;-83
2022/03/19 12:35:46;;;;;;;16.25;2.53;;;19.00;99.90;;;;;;5014233;28;20777;-83
2022/03/19 12:38:32;;;;;;;18.00;2.70;;;19.00;99.90;;;;;;5013040;28;20187;-83
2022/03/19 12:43:49;;;;;;;15.07;4.13;;;19.00;99.90;;;;;;5002276;28;20233;-84
2022/03/19 12:46:26;;;;;;;15.73;4.55;;;19.00;99.90;;;;;;5014295;28;20191;-83
2022/03/19 12:49:05;;;;;;;15.10;4.40;;;18.90;99.90;;;;;;5014003;28;20191;-83
2022/03/19 12:51:39;;;;;;;12.07;3.90;;;18.90;99.90;;;;;;5004230;28;20199;-82
2022/03/19 12:54:21;;;;;;;14.63;3.15;;;18.90;99.90;;;;;;5013160;28;20219;-84
2022/03/19 12:56:52;;;;;;;10.27;2.85;;;18.80;99.90;;;;;;4995649;28;20195;-83
2022/03/19 12:59:24;;;;;;;9.70;2.90;;;18.80;99.90;;;;;;5013295;28;20195;-83
2022/03/19 13:01:56;;;;;;;14.90;2.83;;;18.80;99.90;;;;;;5006349;28;20249;-83
2022/03/19 13:04:27;;;;;;;13.93;2.25;;;18.80;99.90;;;;;;5012107;28;20191;-83
2022/03/19 13:07:01;;;;;;;8.88;1.92;;;18.80;99.90;;;;;;5014003;28;20191;-85
2022/03/19 13:09:37;;;;;;;12.60;2.75;;;18.70;99.90;;;;;;5013804;28;20646;-83
2022/03/19 13:12:10;;;;;;;10.18;2.10;;;18.70;99.90;;;;;;5013733;28;20191;-83
2022/03/19 13:14:41;;;;;;;14.98;2.55;;;18.70;99.90;;;;;;5013822;28;20579;-83
2022/03/19 13:17:11;;;;;;;11.32;2.15;;;18.70;99.90;;;;;;5013028;28;20191;-83
2022/03/19 13:19:45;;;;;;;12.18;2.45;;;18.70;99.90;;;;;;5008996;28;20246;-83
2022/03/19 13:22:19;;;;;;;11.60;2.10;;;18.70;99.90;;;;;;5013661;28;20202;-83
2022/03/19 13:24:53;;;;;;;9.57;2.30;;;18.70;99.90;;;;;;5013183;28;20273;-82
2022/03/19 13:27:23;;;;;;;10.70;2.10;;;18.70;99.90;;;;;;5013290;28;20187;-83